Acapulco Jet — IWUM — position and weather

sailwx.info

Track history (hours):
 
Tides and Currents Weather Stations Pressure Air Temp Water Temp Dewpoint Dewpoint Depression Visibility Wind Speed Wind Dir Waves Ship Positions

Acapulco Jet

Last reported at 2016-May-06 16:18 UTC. Time now 2016-May-06 16:53 UTC.
Position N 42°49' E 010°19'.

Length 35 m; draft 1.3 m.

Type: High speed craft. MMSI: 247050100.

Date/timePositionNaut miles runAvg speedWind from/ knotsBaromVisibWave heightAir tempDewpointWater temp
2016-May-06 16:18N 42°49' E 010°19'1213.4
2016-May-06 15:22N 42°56' E 010°33'8 0.2
2016-May-04 16:08N 42°52' E 010°24'811.1
2016-May-04 15:24N 42°56' E 010°33'9 5.1
2016-May-04 13:33N 42°51' E 010°23'2 1.2
2016-May-04 11:33N 42°52' E 010°25'4 4.2
2016-May-04 10:33N 42°54' E 010°30'2 1.0
2016-May-04 08:07N 42°55' E 010°33'1216.3
2016-May-04 07:24N 42°49' E 010°20'0 0.0
2016-May-03 16:19N 42°49' E 010°19'1213.6
2016-May-03 15:25N 42°56' E 010°33'9 4.9
2016-May-03 13:33N 42°51' E 010°23'2 1.1
2016-May-03 11:31N 42°52' E 010°26'5 1.4
2016-May-03 07:31N 42°49' E 010°19'  
2016-Apr-30 15:09N 42°52' E 010°28'4 2.8
2016-Apr-30 13:33N 42°50' E 010°22'3 1.3
2016-Apr-30 11:33N 42°52' E 010°25'5 0.3
2016-Apr-29 16:21N 42°49' E 010°19'1212.9
2016-Apr-29 15:25N 42°56' E 010°33'8 4.2
2016-Apr-29 13:33N 42°52' E 010°23'1 0.4
2016-Apr-29 11:22N 42°51' E 010°23'3 0.4
2016-Apr-29 04:31N 42°53' E 010°26'  
Track history (hours):
 
Tides and Currents Weather Stations Pressure Air Temp Water Temp Dewpoint Dewpoint Depression Visibility Wind Speed Wind Dir Waves Ship Positions

Acapulco Jet

Last reported at 2016-May-06 16:18 UTC. Time now 2016-May-06 16:53 UTC.
Position N 42°49' E 010°19'.

Length 35 m; draft 1.3 m.

Type: High speed craft. MMSI: 247050100.

Date/timePositionNaut miles runAvg speedWind from/ knotsBaromVisibWave heightAir tempDewpointWater temp
2016-May-06 16:18N 42°49' E 010°19'1213.4
2016-May-06 15:22N 42°56' E 010°33'8 0.2
2016-May-04 16:08N 42°52' E 010°24'811.1
2016-May-04 15:24N 42°56' E 010°33'9 5.1
2016-May-04 13:33N 42°51' E 010°23'2 1.2
2016-May-04 11:33N 42°52' E 010°25'4 4.2
2016-May-04 10:33N 42°54' E 010°30'2 1.0
2016-May-04 08:07N 42°55' E 010°33'1216.3
2016-May-04 07:24N 42°49' E 010°20'0 0.0
2016-May-03 16:19N 42°49' E 010°19'1213.6
2016-May-03 15:25N 42°56' E 010°33'9 4.9
2016-May-03 13:33N 42°51' E 010°23'2 1.1
2016-May-03 11:31N 42°52' E 010°26'5 1.4
2016-May-03 07:31N 42°49' E 010°19'  
2016-Apr-30 15:09N 42°52' E 010°28'4 2.8
2016-Apr-30 13:33N 42°50' E 010°22'3 1.3
2016-Apr-30 11:33N 42°52' E 010°25'5 0.3
2016-Apr-29 16:21N 42°49' E 010°19'1212.9
2016-Apr-29 15:25N 42°56' E 010°33'8 4.2
2016-Apr-29 13:33N 42°52' E 010°23'1 0.4
2016-Apr-29 11:22N 42°51' E 010°23'3 0.4
2016-Apr-29 04:31N 42°53' E 010°26'  

Dump ship's entire track history